createdAt,value
2019-03-16T00:03:08.815Z,99919.31
2019-03-16T00:08:12.281Z,99915.87
2019-03-16T00:13:16.283Z,99915.42
2019-03-16T00:18:20.266Z,99915.52
2019-03-16T00:23:23.698Z,99939.17
2019-03-16T00:28:27.141Z,99953.83
2019-03-16T00:33:30.573Z,99950.39
2019-03-16T00:38:34.007Z,99956.47
2019-03-16T00:43:37.857Z,99963.84
2019-03-16T00:48:41.273Z,99964.19
2019-03-16T00:53:45.711Z,99970.28
2019-03-16T00:58:49.133Z,99979.83
2019-03-16T01:03:52.556Z,99975.08
2019-03-16T01:08:55.982Z,99963.50
2019-03-16T01:13:59.447Z,99979.41
2019-03-16T01:19:03.203Z,99983.73
2019-03-16T01:24:06.655Z,99982.44
2019-03-16T01:29:10.197Z,99976.42
2019-03-16T01:34:13.976Z,99986.84
2019-03-16T01:39:17.762Z,99968.20
2019-03-16T01:44:21.192Z,99978.16
2019-03-16T01:49:24.806Z,99984.59
2019-03-16T01:54:28.278Z,99985.05
2019-03-16T01:59:31.733Z,99998.43
2019-03-16T02:04:35.203Z,99996.23
2019-03-16T02:09:38.745Z,100000.09
2019-03-16T02:14:42.224Z,100003.17
2019-03-16T02:19:45.632Z,100007.52
2019-03-16T02:24:49.122Z,100002.34
2019-03-16T02:29:52.982Z,99994.58
2019-03-16T02:34:56.404Z,99995.08
2019-03-16T02:39:59.842Z,100008.02
2019-03-16T02:45:03.536Z,100001.61
2019-03-16T02:50:11.866Z,100008.97
2019-03-16T02:55:15.278Z,100024.09
2019-03-16T03:00:18.725Z,100021.50
2019-03-16T03:05:22.161Z,100021.08
2019-03-16T03:10:25.685Z,100025.70
2019-03-16T03:15:29.115Z,100028.74
2019-03-16T03:20:32.557Z,100042.62
2019-03-16T03:25:35.983Z,100045.19
2019-03-16T03:30:39.412Z,100051.16
2019-03-16T03:35:42.835Z,100050.77
2019-03-16T03:40:46.272Z,100059.40
2019-03-16T03:45:49.806Z,100046.07
2019-03-16T03:50:53.324Z,100042.19
2019-03-16T03:55:56.833Z,100047.28
2019-03-16T04:01:00.392Z,100047.37
2019-03-16T04:06:03.910Z,100040.44
2019-03-16T04:11:07.429Z,100043.86
2019-03-16T04:16:10.861Z,100046.00
2019-03-16T04:21:14.464Z,100049.10
2019-03-16T04:26:17.900Z,100050.83
2019-03-16T04:31:21.323Z,100052.06
2019-03-16T04:36:24.754Z,100056.91
2019-03-16T04:41:28.183Z,100062.02
2019-03-16T04:46:31.641Z,100049.89
2019-03-16T04:51:35.046Z,100046.87
2019-03-16T04:56:38.475Z,100062.88
2019-03-16T05:01:41.913Z,100051.64
2019-03-16T05:06:45.333Z,100055.65
2019-03-16T05:11:48.765Z,100060.02
2019-03-16T05:16:52.209Z,100063.05
2019-03-16T05:21:55.647Z,100053.25
2019-03-16T05:26:59.071Z,100051.14
2019-03-16T05:32:02.508Z,100053.78
2019-03-16T05:37:05.993Z,100048.14
2019-03-16T05:42:09.425Z,100052.89
2019-03-16T05:47:12.863Z,100034.78
2019-03-16T05:52:16.313Z,100031.83
2019-03-16T05:57:19.732Z,100049.09
2019-03-16T06:02:23.359Z,100057.33
2019-03-16T06:07:26.811Z,100046.56
2019-03-16T06:12:30.236Z,100045.27
2019-03-16T06:17:33.688Z,100047.42
2019-03-16T06:22:37.123Z,100042.70
2019-03-16T06:27:40.550Z,100036.64
2019-03-16T06:32:43.977Z,100036.69
2019-03-16T06:37:47.440Z,100036.69
2019-03-16T06:42:50.871Z,100044.90
2019-03-16T06:47:54.906Z,100043.66
2019-03-16T06:52:58.438Z,100048.02
2019-03-16T06:58:01.875Z,100046.69
2019-03-16T07:03:05.312Z,100032.86
2019-03-16T07:08:08.759Z,100025.50
2019-03-16T07:13:12.219Z,100012.97
2019-03-16T07:18:15.661Z,99996.13
2019-03-16T07:23:19.256Z,99986.75
2019-03-16T07:28:22.818Z,99993.98
2019-03-16T07:33:26.249Z,99981.85
2019-03-16T07:38:29.677Z,99967.34
2019-03-16T07:43:33.099Z,99973.75
2019-03-16T07:48:36.530Z,99958.55
2019-03-16T07:53:39.971Z,99968.86
2019-03-16T07:58:43.392Z,99964.13
2019-03-16T08:03:46.838Z,99952.86
2019-03-16T08:08:53.753Z,99948.20
2019-03-16T08:13:57.195Z,99958.03
2019-03-16T08:19:00.641Z,99961.03
2019-03-16T08:24:04.246Z,99956.66
2019-03-16T08:29:07.683Z,99942.37
2019-03-16T08:34:11.133Z,99932.77
2019-03-16T08:39:14.709Z,99919.71
2019-03-16T08:44:18.168Z,99902.43
2019-03-16T08:49:21.670Z,99894.16
2019-03-16T08:54:25.127Z,99887.26
2019-03-16T08:59:28.530Z,99881.53
2019-03-16T09:04:31.931Z,99866.88
2019-03-16T09:09:35.345Z,99857.29
2019-03-16T09:14:38.772Z,99855.01
2019-03-16T09:19:42.208Z,99851.01
2019-03-16T09:24:45.649Z,99839.17
2019-03-16T09:29:49.079Z,99832.05
2019-03-16T09:34:52.494Z,99839.24
2019-03-16T09:39:55.946Z,99824.68
2019-03-16T09:44:59.418Z,99811.84
2019-03-16T09:50:02.867Z,99813.72
2019-03-16T09:55:08.720Z,99809.13
2019-03-16T10:00:14.203Z,99810.23
2019-03-16T10:05:17.774Z,99806.07
2019-03-16T10:10:21.211Z,99797.91
2019-03-16T10:15:24.677Z,99798.67
2019-03-16T10:20:28.157Z,99775.31
2019-03-16T10:25:31.600Z,99773.59
2019-03-16T10:30:35.065Z,99768.19
2019-03-16T10:35:38.483Z,99768.04
2019-03-16T10:40:41.918Z,99766.48
2019-03-16T10:45:45.341Z,99763.24
2019-03-16T10:50:48.776Z,99771.61
2019-03-16T10:55:52.211Z,99770.75
2019-03-16T11:00:55.641Z,99765.64
2019-03-16T11:05:59.068Z,99756.73
2019-03-16T11:11:02.509Z,99759.03
2019-03-16T11:16:05.942Z,99752.52
2019-03-16T11:21:09.389Z,99748.11
2019-03-16T11:26:12.846Z,99735.27
2019-03-16T11:31:16.296Z,99743.09
2019-03-16T11:36:19.722Z,99750.75
2019-03-16T11:41:23.167Z,99752.14
2019-03-16T11:46:27.298Z,99746.59
2019-03-16T11:51:30.746Z,99745.79
2019-03-16T11:56:34.185Z,99749.20
2019-03-16T12:01:37.613Z,99744.89
2019-03-16T12:06:41.037Z,99733.64
2019-03-16T12:11:44.554Z,99729.98
2019-03-16T12:16:48.004Z,99729.98
2019-03-16T12:21:51.439Z,99730.31
2019-03-16T12:26:54.870Z,99710.38
2019-03-16T12:31:58.318Z,99707.16
2019-03-16T12:37:01.751Z,99704.83
2019-03-16T12:42:05.234Z,99697.51
2019-03-16T12:47:08.912Z,99688.84
2019-03-16T12:52:12.751Z,99686.86
2019-03-16T12:57:16.178Z,99668.38
2019-03-16T13:02:19.619Z,99661.91
2019-03-16T13:07:23.048Z,99674.95
2019-03-16T13:12:26.661Z,99678.41
2019-03-16T13:17:30.078Z,99671.16
2019-03-16T13:22:33.692Z,99657.27
2019-03-16T13:27:37.134Z,99654.72
2019-03-16T13:32:40.571Z,99644.06
2019-03-16T13:37:44.092Z,99658.05
2019-03-16T13:42:47.602Z,99665.87
2019-03-16T13:47:52.036Z,99660.81
2019-03-16T13:52:56.160Z,99647.21
2019-03-16T13:57:59.551Z,99643.57
2019-03-16T14:03:02.971Z,99636.25
2019-03-16T14:08:06.401Z,99636.20
2019-03-16T14:13:10.074Z,99624.38
2019-03-16T14:18:13.507Z,99638.86
2019-03-16T14:23:16.928Z,99639.12
2019-03-16T14:28:20.469Z,99650.91
2019-03-16T14:33:23.883Z,99645.74
2019-03-16T14:38:27.318Z,99638.77
2019-03-16T14:43:30.743Z,99616.52
2019-03-16T14:48:34.179Z,99615.79
2019-03-16T14:53:37.597Z,99619.25
2019-03-16T14:58:41.051Z,99623.88
2019-03-16T15:03:44.476Z,99616.97
2019-03-16T15:08:47.903Z,99611.75
2019-03-16T15:13:51.335Z,99591.51
2019-03-16T15:18:54.792Z,99595.61
2019-03-16T15:23:58.219Z,99584.73
2019-03-16T15:29:01.643Z,99597.52
2019-03-16T15:34:05.125Z,99576.81
2019-03-16T15:39:08.556Z,99565.39
2019-03-16T15:44:11.990Z,99573.10
2019-03-16T15:49:15.421Z,99569.56
2019-03-16T15:54:18.920Z,99573.73
2019-03-16T15:59:22.357Z,99570.02
2019-03-16T16:04:25.806Z,99563.58
2019-03-16T16:09:29.219Z,99544.83
2019-03-16T16:14:32.720Z,99552.60
2019-03-16T16:19:36.159Z,99548.52
2019-03-16T16:24:39.549Z,99548.75
2019-03-16T16:29:42.965Z,99540.09
2019-03-16T16:34:46.366Z,99547.07
2019-03-16T16:39:49.815Z,99557.16
2019-03-16T16:44:53.239Z,99541.26
2019-03-16T16:49:56.655Z,99530.56
2019-03-16T16:55:00.080Z,99538.30
2019-03-16T17:00:05.777Z,99534.92
2019-03-16T17:05:09.218Z,99539.89
2019-03-16T17:10:17.359Z,99527.56
2019-03-16T17:15:22.220Z,99522.34
2019-03-16T17:20:25.654Z,99532.45
2019-03-16T17:25:29.079Z,99530.25
2019-03-16T17:30:34.343Z,99516.75
2019-03-16T17:35:38.063Z,99513.34
2019-03-16T17:40:41.551Z,99509.18
2019-03-16T17:45:44.959Z,99507.93
2019-03-16T17:50:48.377Z,99504.98
2019-03-16T17:55:51.791Z,99503.16
2019-03-16T18:00:55.237Z,99498.48
2019-03-16T18:05:58.653Z,99506.11
2019-03-16T18:11:02.084Z,99500.75
2019-03-16T18:16:05.666Z,99501.69
2019-03-16T18:21:09.120Z,99500.64
2019-03-16T18:26:12.574Z,99502.70
2019-03-16T18:31:15.978Z,99503.05
2019-03-16T18:36:19.425Z,99500.25
2019-03-16T18:41:22.855Z,99505.66
2019-03-16T18:46:26.384Z,99496.66
2019-03-16T18:51:29.820Z,99501.66
2019-03-16T18:56:33.294Z,99512.75
2019-03-16T19:01:36.727Z,99497.36
2019-03-16T19:06:40.164Z,99504.53
2019-03-16T19:11:43.597Z,99490.84
2019-03-16T19:16:47.024Z,99485.83
2019-03-16T19:21:50.532Z,99482.50
2019-03-16T19:26:53.962Z,99472.59
2019-03-16T19:31:57.429Z,99474.56
2019-03-16T19:37:00.841Z,99477.09
2019-03-16T19:42:04.267Z,99476.05
2019-03-16T19:47:07.699Z,99475.13
2019-03-16T19:52:11.120Z,99455.64
2019-03-16T19:57:16.115Z,99447.90
2019-03-16T20:02:19.778Z,99444.50
2019-03-16T20:07:26.412Z,99439.28
2019-03-16T20:12:29.867Z,99437.98
2019-03-16T20:17:33.378Z,99439.82
2019-03-16T20:22:36.743Z,99438.45
2019-03-16T20:27:40.230Z,99430.30
2019-03-16T20:32:43.757Z,99421.88
2019-03-16T20:37:51.505Z,99413.69
2019-03-16T20:42:55.895Z,99403.38
2019-03-16T20:47:59.803Z,99394.34
2019-03-16T20:53:03.242Z,99387.38
2019-03-16T20:58:06.700Z,99385.53
2019-03-16T21:03:16.117Z,99374.52
2019-03-16T21:08:15.319Z,99384.74
2019-03-16T21:13:19.631Z,99367.57
2019-03-16T21:18:23.091Z,99352.84
2019-03-16T21:23:27.405Z,99340.33
2019-03-16T21:28:31.456Z,99332.00
2019-03-16T21:33:35.919Z,99315.12
2019-03-16T21:38:40.064Z,99330.67
2019-03-16T21:43:44.273Z,99330.75
2019-03-16T21:48:47.781Z,99307.16
2019-03-16T21:53:51.208Z,99294.98
2019-03-16T21:58:54.647Z,99300.83
2019-03-16T22:03:58.134Z,99299.42
2019-03-16T22:09:01.626Z,99292.95
2019-03-16T22:14:05.236Z,99281.34
2019-03-16T22:19:08.668Z,99274.86
2019-03-16T22:24:12.087Z,99267.41
2019-03-16T22:29:15.502Z,99264.34
2019-03-16T22:34:18.956Z,99264.65
2019-03-16T22:39:22.376Z,99261.07
2019-03-16T22:44:25.817Z,99246.55
2019-03-16T22:49:29.248Z,99231.64
2019-03-16T22:54:32.665Z,99239.67
2019-03-16T22:59:36.089Z,99235.77
2019-03-16T23:04:39.525Z,99222.86
2019-03-16T23:09:42.945Z,99222.01
2019-03-16T23:14:46.372Z,99217.59
2019-03-16T23:19:49.901Z,99205.41
2019-03-16T23:24:53.323Z,99198.55
2019-03-16T23:29:56.772Z,99194.80
2019-03-16T23:35:00.268Z,99180.47
2019-03-16T23:40:05.509Z,99169.26
2019-03-16T23:45:11.698Z,99172.34
2019-03-16T23:50:15.806Z,99159.58
2019-03-16T23:55:19.230Z,99157.16
